createdAt,value
2022-09-20T00:01:36.209Z,98240.75
2022-09-20T00:04:05.773Z,98246.06
2022-09-20T00:06:33.670Z,98240.22
2022-09-20T00:09:01.650Z,98243.00
2022-09-20T00:11:31.337Z,98252.53
2022-09-20T00:13:59.408Z,98251.78
2022-09-20T00:16:28.106Z,98259.59
2022-09-20T00:18:56.485Z,98194.16
2022-09-20T00:21:25.377Z,98259.50
2022-09-20T00:23:53.030Z,98268.28
2022-09-20T00:26:21.154Z,98261.19
2022-09-20T00:28:48.411Z,98264.91
2022-09-20T00:31:18.982Z,98287.13
2022-09-20T00:34:04.842Z,98279.53
2022-09-20T00:36:32.702Z,98281.53
2022-09-20T00:39:00.872Z,98275.59
2022-09-20T00:41:28.924Z,98288.84
2022-09-20T00:43:56.721Z,98296.69
2022-09-20T00:46:36.480Z,98308.13
2022-09-20T00:49:12.556Z,98297.63
2022-09-20T00:51:41.269Z,98299.63
2022-09-20T00:54:10.784Z,98299.72
2022-09-20T00:56:41.210Z,98304.19
2022-09-20T00:59:11.571Z,98319.09
2022-09-20T01:01:38.770Z,98318.25
2022-09-20T01:04:06.382Z,98314.69
2022-09-20T01:06:34.409Z,98319.75
2022-09-20T01:09:03.459Z,98313.28
2022-09-20T01:11:32.616Z,98324.63
2022-09-20T01:13:59.779Z,98326.34
2022-09-20T01:16:27.385Z,98337.84
2022-09-20T01:18:57.717Z,98320.50
2022-09-20T01:21:25.770Z,98335.72
2022-09-20T01:23:55.963Z,98341.97
2022-09-20T01:26:41.854Z,98344.63
2022-09-20T01:29:24.406Z,98363.78
2022-09-20T01:31:55.452Z,98358.50
2022-09-20T01:34:29.833Z,98362.72
2022-09-20T01:36:57.272Z,98360.00
2022-09-20T01:39:40.522Z,98359.25
2022-09-20T01:42:12.555Z,98286.72
2022-09-20T01:44:43.399Z,98363.78
2022-09-20T01:47:28.933Z,98377.16
2022-09-20T01:50:15.601Z,98384.03
2022-09-20T01:52:46.211Z,98388.38
2022-09-20T01:55:31.240Z,98381.19
2022-09-20T01:58:05.012Z,98390.72
2022-09-20T02:00:46.183Z,98392.50
2022-09-20T02:03:19.756Z,98390.81
2022-09-20T02:06:05.581Z,98385.50
2022-09-20T02:08:51.573Z,98390.16
2022-09-20T02:11:24.878Z,98394.63
2022-09-20T02:13:51.978Z,98402.56
2022-09-20T02:16:38.024Z,98415.03
2022-09-20T02:19:24.249Z,98407.84
2022-09-20T02:22:04.346Z,98421.81
2022-09-20T02:24:31.639Z,98424.28
2022-09-20T02:27:23.532Z,98437.09
2022-09-20T02:29:54.153Z,98435.09
2022-09-20T02:32:40.415Z,98441.13
2022-09-20T02:35:19.948Z,98432.22
2022-09-20T02:37:56.152Z,98460.31
2022-09-20T02:40:26.374Z,98457.56
2022-09-20T02:43:09.206Z,98453.94
2022-09-20T02:45:57.222Z,98464.66
2022-09-20T02:48:30.064Z,98464.00
2022-09-20T02:51:06.728Z,98465.94
2022-09-20T02:53:39.781Z,98470.75
2022-09-20T02:56:19.327Z,98482.41
2022-09-20T02:59:10.490Z,98487.47
2022-09-20T03:01:48.361Z,98489.00
2022-09-20T03:04:25.199Z,98496.72
2022-09-20T03:07:04.064Z,98500.13
2022-09-20T03:09:31.740Z,98506.28
2022-09-20T03:12:17.978Z,98519.81
2022-09-20T03:15:00.863Z,98519.81
2022-09-20T03:17:36.734Z,98527.53
2022-09-20T03:20:13.097Z,98529.25
2022-09-20T03:22:43.331Z,98539.84
2022-09-20T03:25:29.552Z,98546.84
2022-09-20T03:28:08.862Z,98555.44
2022-09-20T03:30:55.363Z,98563.06
2022-09-20T03:33:22.555Z,98551.44
2022-09-20T03:35:53.932Z,98560.13
2022-09-20T03:38:41.552Z,98569.75
2022-09-20T03:41:11.916Z,98567.78
2022-09-20T03:43:42.129Z,98578.94
2022-09-20T03:46:28.852Z,98577.03
2022-09-20T03:48:59.138Z,98594.63
2022-09-20T03:51:33.896Z,98595.38
2022-09-20T03:54:07.837Z,98588.28
2022-09-20T03:56:45.616Z,98592.53
2022-09-20T03:59:27.840Z,98591.56
2022-09-20T04:02:10.750Z,98581.72
2022-09-20T04:04:59.241Z,98596.00
2022-09-20T04:07:50.381Z,98603.97
2022-09-20T04:10:41.193Z,98615.41
2022-09-20T04:13:08.440Z,98611.91
2022-09-20T04:15:48.208Z,98555.94
2022-09-20T04:18:41.734Z,98622.09
2022-09-20T04:21:17.538Z,98628.06
2022-09-20T04:23:59.652Z,98634.84
2022-09-20T04:26:28.776Z,98639.84
2022-09-20T04:29:06.029Z,98642.09
2022-09-20T04:31:33.627Z,98651.34
2022-09-20T04:34:02.225Z,98650.97
2022-09-20T04:36:38.706Z,98656.34
2022-09-20T04:39:11.753Z,98660.16
2022-09-20T04:41:54.723Z,98658.47
2022-09-20T04:44:40.772Z,98662.91
2022-09-20T04:47:08.710Z,98657.91
2022-09-20T04:50:01.567Z,98668.09
2022-09-20T04:52:53.898Z,98672.19
2022-09-20T04:55:32.884Z,98690.03
2022-09-20T04:58:06.330Z,98680.91
2022-09-20T05:00:42.745Z,98682.50
2022-09-20T05:03:33.261Z,98683.03
2022-09-20T05:06:06.600Z,98680.09
2022-09-20T05:08:49.237Z,98694.53
2022-09-20T05:11:17.476Z,98689.00
2022-09-20T05:14:08.556Z,98705.47
2022-09-20T05:16:55.619Z,98695.91
2022-09-20T05:19:34.252Z,98703.25
2022-09-20T05:22:19.331Z,98710.00
2022-09-20T05:24:50.050Z,98713.94
2022-09-20T05:27:17.295Z,98721.34
2022-09-20T05:29:44.471Z,98719.47
2022-09-20T05:32:14.802Z,98728.34
2022-09-20T05:34:51.241Z,98743.44
2022-09-20T05:37:18.603Z,98737.13
2022-09-20T05:39:55.208Z,98744.56
2022-09-20T05:42:41.087Z,98740.50
2022-09-20T05:45:18.323Z,98752.66
2022-09-20T05:47:48.673Z,98756.34
2022-09-20T05:50:34.617Z,98745.69
2022-09-20T05:53:24.652Z,98763.03
2022-09-20T05:55:51.889Z,98762.13
2022-09-20T05:58:28.621Z,98753.53
2022-09-20T06:01:02.509Z,98761.03
2022-09-20T06:03:33.037Z,98776.94
2022-09-20T06:06:03.566Z,98764.97
2022-09-20T06:08:46.498Z,98773.84
2022-09-20T06:11:28.828Z,98782.81
2022-09-20T06:14:15.471Z,98797.84
2022-09-20T06:16:43.532Z,98792.59
2022-09-20T06:19:19.900Z,98792.22
2022-09-20T06:21:58.987Z,98799.94
2022-09-20T06:24:48.029Z,98801.03
2022-09-20T06:27:19.468Z,98801.41
2022-09-20T06:29:50.951Z,98811.16
2022-09-20T06:32:18.884Z,98819.53
2022-09-20T06:34:47.064Z,98825.19
2022-09-20T06:37:38.623Z,98822.94
2022-09-20T06:40:39.976Z,98835.00
2022-09-20T06:43:07.685Z,98843.03
2022-09-20T06:45:36.043Z,98835.94
2022-09-20T06:48:03.435Z,98838.44
2022-09-20T06:50:31.401Z,98841.59
2022-09-20T06:52:58.957Z,98843.81
2022-09-20T06:55:30.238Z,98843.69
2022-09-20T06:57:57.598Z,98853.53
2022-09-20T07:00:24.788Z,98863.78
2022-09-20T07:02:52.025Z,98855.53
2022-09-20T07:05:22.156Z,98854.38
2022-09-20T07:07:49.733Z,98858.72
2022-09-20T07:10:19.492Z,98863.44
2022-09-20T07:12:47.338Z,98856.09
2022-09-20T07:15:15.152Z,98857.22
2022-09-20T07:17:44.694Z,98866.22
2022-09-20T07:20:12.189Z,98861.19
2022-09-20T07:22:39.267Z,98868.78
2022-09-20T07:25:08.768Z,98879.09
2022-09-20T07:27:37.108Z,98880.16
2022-09-20T07:30:04.399Z,98894.16
2022-09-20T07:32:31.782Z,98879.94
2022-09-20T07:34:59.728Z,98891.00
2022-09-20T07:37:27.063Z,98887.31
2022-09-20T07:39:54.945Z,98891.25
2022-09-20T07:42:22.310Z,98884.56
2022-09-20T07:44:51.617Z,98897.28
2022-09-20T07:47:21.007Z,98898.06
2022-09-20T07:49:48.193Z,98893.38
2022-09-20T07:52:16.234Z,98902.53
2022-09-20T07:54:43.892Z,98897.28
2022-09-20T07:57:11.274Z,98893.56
2022-09-20T07:59:38.646Z,98906.31
2022-09-20T08:02:06.499Z,98913.72
2022-09-20T08:04:33.832Z,98901.78
2022-09-20T08:07:01.891Z,98900.28
2022-09-20T08:09:29.170Z,98894.00
2022-09-20T08:11:57.647Z,98912.19
2022-09-20T08:14:25.775Z,98913.16
2022-09-20T08:16:53.751Z,98913.97
2022-09-20T08:19:23.055Z,98914.50
2022-09-20T08:21:51.705Z,98917.13
2022-09-20T08:24:19.264Z,98919.56
2022-09-20T08:26:46.709Z,98916.94
2022-09-20T08:29:15.500Z,98921.09
2022-09-20T08:31:43.101Z,98928.78
2022-09-20T08:34:12.007Z,98930.03
2022-09-20T08:36:41.458Z,98935.25
2022-09-20T08:41:58.874Z,98930.72
2022-09-20T08:44:29.571Z,98937.38
2022-09-20T08:47:04.030Z,98945.31
2022-09-20T08:49:31.490Z,98937.84
2022-09-20T08:52:04.365Z,98945.84
2022-09-20T08:54:33.588Z,98951.69
2022-09-20T08:57:13.124Z,98950.41
2022-09-20T08:59:41.305Z,98941.88
2022-09-20T09:02:19.075Z,98949.78
2022-09-20T09:04:46.496Z,98944.78
2022-09-20T09:07:14.525Z,98941.22
2022-09-20T09:09:47.676Z,98957.00
2022-09-20T09:12:34.566Z,98953.69
2022-09-20T09:15:17.704Z,98950.00
2022-09-20T09:17:45.333Z,98951.41
2022-09-20T09:20:17.815Z,98954.09
2022-09-20T09:22:46.109Z,98952.78
2022-09-20T09:25:13.385Z,98941.78
2022-09-20T09:28:04.145Z,98954.25
2022-09-20T09:30:33.122Z,98959.59
2022-09-20T09:33:17.642Z,98953.63
2022-09-20T09:35:45.828Z,98970.97
2022-09-20T09:38:18.084Z,98978.59
2022-09-20T09:40:55.820Z,98968.16
2022-09-20T09:43:27.212Z,98973.19
2022-09-20T09:45:55.471Z,98967.75
2022-09-20T09:48:22.766Z,98986.63
2022-09-20T09:50:50.398Z,98980.94
2022-09-20T09:53:21.622Z,98983.75
2022-09-20T09:55:58.417Z,98994.03
2022-09-20T09:58:28.843Z,98989.63
2022-09-20T10:00:57.830Z,98987.78
2022-09-20T10:03:43.861Z,98986.31
2022-09-20T10:06:11.331Z,98998.88
2022-09-20T10:09:01.515Z,98992.78
2022-09-20T10:11:43.871Z,99000.97
2022-09-20T10:14:29.940Z,98999.34
2022-09-20T10:17:17.396Z,99005.84
2022-09-20T10:20:02.459Z,99006.09
2022-09-20T10:22:34.773Z,99011.81
2022-09-20T10:25:15.939Z,99007.22
2022-09-20T10:27:43.486Z,99007.69
2022-09-20T10:30:16.803Z,99010.38
2022-09-20T10:32:47.681Z,99010.50
2022-09-20T10:35:21.171Z,99025.38
2022-09-20T10:37:49.657Z,99022.44
2022-09-20T10:40:24.947Z,99028.75
2022-09-20T10:43:14.946Z,99030.63
2022-09-20T10:46:20.962Z,99031.34
2022-09-20T10:48:52.712Z,99021.63
2022-09-20T10:51:25.529Z,99033.81
2022-09-20T10:53:55.825Z,99037.75
2022-09-20T10:56:29.167Z,99040.06
2022-09-20T10:59:17.375Z,99047.66
2022-09-20T11:02:00.149Z,99056.75
2022-09-20T11:04:27.690Z,99062.63
2022-09-20T11:06:55.214Z,99065.13
2022-09-20T11:09:25.514Z,99048.00
2022-09-20T11:12:18.991Z,99063.53
2022-09-20T11:14:50.286Z,99071.34
2022-09-20T11:17:22.913Z,99073.91
2022-09-20T11:19:56.756Z,99088.50
2022-09-20T11:22:39.137Z,99086.56
2022-09-20T11:25:20.030Z,99096.75
2022-09-20T11:27:54.339Z,99098.34
2022-09-20T11:30:22.585Z,99105.50
2022-09-20T11:33:15.853Z,99099.41
2022-09-20T11:35:46.580Z,99106.84
2022-09-20T11:38:16.888Z,99100.13
2022-09-20T11:40:53.751Z,99105.38
2022-09-20T11:43:21.980Z,99102.69
2022-09-20T11:45:53.902Z,99115.22
2022-09-20T11:48:29.883Z,99107.53
2022-09-20T11:51:03.372Z,99106.81
2022-09-20T11:53:43.187Z,99109.75
2022-09-20T11:56:18.511Z,99111.09
2022-09-20T11:58:53.806Z,99125.31
2022-09-20T12:01:28.665Z,99125.63
2022-09-20T12:04:14.521Z,99124.00
2022-09-20T12:06:46.395Z,99133.50
2022-09-20T12:09:24.823Z,99129.19
2022-09-20T12:11:55.424Z,99133.28
2022-09-20T12:14:28.035Z,99122.59
2022-09-20T12:16:55.521Z,99139.47
2022-09-20T12:19:22.707Z,99145.06
2022-09-20T12:22:10.747Z,99147.84
2022-09-20T12:24:45.341Z,99154.66
2022-09-20T12:27:41.987Z,99152.84
2022-09-20T12:30:20.034Z,99148.53
2022-09-20T12:32:52.465Z,99149.50
2022-09-20T12:35:49.419Z,99150.28
2022-09-20T12:38:38.000Z,99144.34
2022-09-20T12:41:08.586Z,99148.53
2022-09-20T12:43:37.704Z,99154.59
2022-09-20T12:46:09.933Z,99157.25
2022-09-20T12:48:39.588Z,99166.25
2022-09-20T12:51:34.519Z,99168.28
2022-09-20T12:54:02.955Z,99156.47
2022-09-20T12:56:34.408Z,99169.94
2022-09-20T12:59:05.744Z,99167.31
2022-09-20T13:01:35.169Z,99173.25
2022-09-20T13:04:21.401Z,99170.03
2022-09-20T13:06:49.216Z,99165.69
2022-09-20T13:09:16.726Z,99156.63
2022-09-20T13:11:44.039Z,99161.41
2022-09-20T13:14:17.349Z,99166.84
2022-09-20T13:16:59.479Z,99164.63
2022-09-20T13:19:39.307Z,99167.38
2022-09-20T13:22:15.431Z,99174.53
2022-09-20T13:24:45.305Z,99179.88
2022-09-20T13:27:19.273Z,99179.31
2022-09-20T13:29:47.316Z,99175.00
2022-09-20T13:32:31.031Z,99177.72
2022-09-20T13:35:10.930Z,99184.69
2022-09-20T13:37:47.418Z,99182.72
2022-09-20T13:40:18.211Z,99192.41
2022-09-20T13:42:46.526Z,99185.19
2022-09-20T13:45:14.971Z,99189.69
2022-09-20T13:47:43.580Z,99187.47
2022-09-20T13:50:18.143Z,99190.81
2022-09-20T13:52:47.041Z,99196.59
2022-09-20T13:55:29.188Z,99195.53
2022-09-20T13:57:57.834Z,99196.16
2022-09-20T14:00:25.452Z,99191.25
2022-09-20T14:02:57.676Z,99193.59
2022-09-20T14:05:26.605Z,99205.97
2022-09-20T14:07:54.062Z,99194.25
2022-09-20T14:10:31.344Z,99195.94
2022-09-20T14:13:02.552Z,99195.09
2022-09-20T14:15:33.956Z,99193.91
2022-09-20T14:18:01.559Z,99203.19
2022-09-20T14:20:28.815Z,99209.28
2022-09-20T14:22:59.109Z,99217.13
2022-09-20T14:25:27.913Z,99210.00
2022-09-20T14:28:28.723Z,99211.88
2022-09-20T14:31:06.372Z,99222.28
2022-09-20T14:33:33.742Z,99227.28
2022-09-20T14:36:01.334Z,99235.88
2022-09-20T14:38:28.782Z,99229.47
2022-09-20T14:40:57.064Z,99237.19
2022-09-20T14:43:26.860Z,99229.63
2022-09-20T14:45:59.424Z,99236.44
2022-09-20T14:48:28.579Z,99244.97
2022-09-20T14:51:16.511Z,99230.72
2022-09-20T14:53:50.663Z,99235.09
2022-09-20T14:56:27.471Z,99242.84
2022-09-20T14:59:09.852Z,99246.06
2022-09-20T15:01:41.449Z,99246.16
2022-09-20T15:04:36.117Z,99241.03
2022-09-20T15:07:05.132Z,99247.75
2022-09-20T15:09:32.643Z,99247.34
2022-09-20T15:12:07.808Z,99247.97
2022-09-20T15:14:37.934Z,99248.22
2022-09-20T15:17:05.650Z,99257.25
2022-09-20T15:19:33.298Z,99264.31
2022-09-20T15:22:00.558Z,99261.72
2022-09-20T15:24:28.090Z,99264.19
2022-09-20T15:26:55.592Z,99267.63
2022-09-20T15:29:22.875Z,99268.47
2022-09-20T15:31:50.262Z,99271.91
2022-09-20T15:34:18.076Z,99267.44
2022-09-20T15:36:45.660Z,99275.13
2022-09-20T15:39:12.905Z,99271.50
2022-09-20T15:41:41.129Z,99276.25
2022-09-20T15:44:08.469Z,99279.28
2022-09-20T15:46:35.529Z,99282.44
2022-09-20T15:49:03.851Z,99277.88
2022-09-20T15:51:31.549Z,99283.78
2022-09-20T15:54:00.362Z,99295.88
2022-09-20T15:56:29.946Z,99292.13
2022-09-20T15:59:05.260Z,99300.97
2022-09-20T16:01:40.170Z,99300.00
2022-09-20T16:04:15.597Z,99301.69
2022-09-20T16:06:48.614Z,99308.66
2022-09-20T16:09:34.036Z,99305.78
2022-09-20T16:12:09.700Z,99301.09
2022-09-20T16:14:45.268Z,99313.19
2022-09-20T16:17:19.447Z,99312.75
2022-09-20T16:19:52.281Z,99315.81
2022-09-20T16:22:23.216Z,99316.25
2022-09-20T16:24:53.957Z,99321.81
2022-09-20T16:27:21.986Z,99320.47
2022-09-20T16:29:49.351Z,99321.69
2022-09-20T16:32:16.781Z,99324.56
2022-09-20T16:34:47.257Z,99334.59
2022-09-20T16:37:16.933Z,99330.47
2022-09-20T16:39:44.532Z,99331.56
2022-09-20T16:42:12.223Z,99330.13
2022-09-20T16:44:45.286Z,99327.81
2022-09-20T16:47:14.795Z,99333.28
2022-09-20T16:49:46.017Z,99329.16
2022-09-20T16:52:13.809Z,99332.81
2022-09-20T16:54:43.640Z,99337.19
2022-09-20T16:57:10.849Z,99337.19
2022-09-20T16:59:38.669Z,99334.72
2022-09-20T17:02:06.116Z,99336.59
2022-09-20T17:04:33.236Z,99340.31
2022-09-20T17:07:04.426Z,99336.16
2022-09-20T17:09:31.821Z,99331.00
2022-09-20T17:11:59.512Z,99335.59
2022-09-20T17:14:26.861Z,99338.59
2022-09-20T17:16:56.642Z,99341.53
2022-09-20T17:19:23.865Z,99342.72
2022-09-20T17:21:56.625Z,99340.22
2022-09-20T17:24:25.258Z,99336.97
2022-09-20T17:26:53.866Z,99346.78
2022-09-20T17:29:21.369Z,99348.56
2022-09-20T17:31:55.212Z,99354.88
2022-09-20T17:34:24.888Z,99354.19
2022-09-20T17:36:52.574Z,99360.41
2022-09-20T17:39:20.554Z,99360.56
2022-09-20T17:41:49.356Z,99362.53
2022-09-20T17:44:16.975Z,99367.97
2022-09-20T17:46:45.541Z,99361.91
2022-09-20T17:49:14.581Z,99363.75
2022-09-20T17:51:45.955Z,99371.88
2022-09-20T17:54:14.235Z,99365.88
2022-09-20T17:56:43.856Z,99361.63
2022-09-20T17:59:11.848Z,99360.16
2022-09-20T18:01:40.538Z,99362.97
2022-09-20T18:04:08.449Z,99362.97
2022-09-20T18:06:37.321Z,99363.88
2022-09-20T18:09:06.008Z,99362.16
2022-09-20T18:11:34.936Z,99361.22
2022-09-20T18:14:02.860Z,99362.16
2022-09-20T18:16:31.245Z,99362.38
2022-09-20T18:19:00.079Z,99361.84
2022-09-20T18:21:28.990Z,99366.50
2022-09-20T18:23:57.483Z,99365.03
2022-09-20T18:26:26.359Z,99369.69
2022-09-20T18:28:57.759Z,99376.81
2022-09-20T18:31:26.805Z,99377.91
2022-09-20T18:33:55.400Z,99371.75
2022-09-20T18:36:25.787Z,99376.25
2022-09-20T18:38:57.522Z,99360.63
2022-09-20T18:41:26.286Z,99366.91
2022-09-20T18:43:55.030Z,99370.47
2022-09-20T18:46:25.918Z,99371.47
2022-09-20T18:48:53.906Z,99370.78
2022-09-20T18:51:22.093Z,99374.56
2022-09-20T18:53:49.535Z,99375.56
2022-09-20T18:56:23.009Z,99379.22
2022-09-20T18:58:51.935Z,99382.94
2022-09-20T19:01:25.423Z,99382.13
2022-09-20T19:03:58.569Z,99388.41
2022-09-20T19:06:30.766Z,99388.56
2022-09-20T19:09:02.428Z,99392.16
2022-09-20T19:11:45.058Z,99386.91
2022-09-20T19:14:21.827Z,99392.50
2022-09-20T19:16:50.662Z,99397.94
2022-09-20T19:19:32.512Z,99397.13
2022-09-20T19:22:00.114Z,99398.13
2022-09-20T19:24:45.799Z,99390.25
2022-09-20T19:27:13.886Z,99396.53
2022-09-20T19:29:41.247Z,99393.03
2022-09-20T19:32:15.823Z,99389.69
2022-09-20T19:34:43.907Z,99392.53
2022-09-20T19:37:23.531Z,99393.53
2022-09-20T19:39:56.977Z,99397.13
2022-09-20T19:42:32.452Z,99394.66
2022-09-20T19:45:15.572Z,99403.72
2022-09-20T19:47:50.397Z,99397.72
2022-09-20T19:50:46.753Z,99405.72
2022-09-20T19:53:15.248Z,99417.31
2022-09-20T19:55:46.444Z,99411.34
2022-09-20T19:58:14.684Z,99412.47
2022-09-20T20:00:46.192Z,99415.25
2022-09-20T20:03:14.286Z,99417.00
2022-09-20T20:05:46.435Z,99419.78
2022-09-20T20:08:20.246Z,99416.38
2022-09-20T20:11:05.997Z,99422.50
2022-09-20T20:13:59.684Z,99420.00
2022-09-20T20:16:33.707Z,99420.00
2022-09-20T20:19:10.065Z,99422.63
2022-09-20T20:21:55.087Z,99425.28
2022-09-20T20:24:28.408Z,99420.75
2022-09-20T20:26:55.968Z,99420.91
2022-09-20T20:29:23.263Z,99423.69
2022-09-20T20:31:50.590Z,99420.25
2022-09-20T20:34:18.449Z,99419.44
2022-09-20T20:36:45.652Z,99415.09
2022-09-20T20:39:13.186Z,99421.41
2022-09-20T20:41:41.309Z,99423.34
2022-09-20T20:44:08.568Z,99420.78
2022-09-20T20:46:36.246Z,99422.53
2022-09-20T20:49:03.739Z,99422.63
2022-09-20T20:51:33.198Z,99415.69
2022-09-20T20:54:01.150Z,99420.13
2022-09-20T20:56:30.033Z,99415.75
2022-09-20T20:59:00.745Z,99416.59
2022-09-20T21:01:32.328Z,99422.00
2022-09-20T21:03:59.629Z,99409.78
2022-09-20T21:06:28.544Z,99416.00
2022-09-20T21:08:56.160Z,99417.81
2022-09-20T21:11:24.615Z,99417.00
2022-09-20T21:13:52.626Z,99426.75
2022-09-20T21:16:24.935Z,99418.06
2022-09-20T21:18:52.466Z,99427.88
2022-09-20T21:21:19.602Z,99422.72
2022-09-20T21:23:48.414Z,99429.00
2022-09-20T21:26:16.211Z,99420.28
2022-09-20T21:28:51.322Z,99419.50
2022-09-20T21:31:19.202Z,99414.28
2022-09-20T21:33:46.744Z,99423.97
2022-09-20T21:36:17.999Z,99421.38
2022-09-20T21:38:45.763Z,99429.31
2022-09-20T21:41:14.328Z,99422.31
2022-09-20T21:43:43.678Z,99425.94
2022-09-20T21:46:11.903Z,99416.41
2022-09-20T21:48:39.812Z,99421.78
2022-09-20T21:51:08.019Z,99421.81
2022-09-20T21:53:35.603Z,99427.28
2022-09-20T21:56:06.885Z,99422.97
2022-09-20T21:58:34.573Z,99421.28
2022-09-20T22:01:12.705Z,99414.28
2022-09-20T22:04:06.009Z,99419.56
2022-09-20T22:06:34.839Z,99419.75
2022-09-20T22:09:04.383Z,99427.81
2022-09-20T22:11:36.392Z,99419.13
2022-09-20T22:14:03.838Z,99432.28
2022-09-20T22:16:32.074Z,99428.88
2022-09-20T22:19:02.498Z,99428.88
2022-09-20T22:21:31.057Z,99432.41
2022-09-20T22:24:00.458Z,99432.50
2022-09-20T22:26:30.487Z,99436.97
2022-09-20T22:28:57.910Z,99431.75
2022-09-20T22:31:26.142Z,99432.59
2022-09-20T22:33:55.130Z,99430.88
2022-09-20T22:36:23.792Z,99444.88
2022-09-20T22:38:51.515Z,99449.28
2022-09-20T22:41:19.517Z,99445.72
2022-09-20T22:43:46.853Z,99443.09
2022-09-20T22:46:15.277Z,99442.25
2022-09-20T22:48:42.784Z,99436.97
2022-09-20T22:51:20.232Z,99443.94
2022-09-20T22:53:48.039Z,99444.88
2022-09-20T22:56:16.476Z,99439.59
2022-09-20T22:58:46.820Z,99440.50
2022-09-20T23:01:24.352Z,99439.72
2022-09-20T23:03:56.279Z,99438.84
2022-09-20T23:06:30.707Z,99437.97
2022-09-20T23:08:59.726Z,99436.19
2022-09-20T23:11:27.841Z,99437.09
2022-09-20T23:13:56.887Z,99442.34
2022-09-20T23:16:25.883Z,99446.75
2022-09-20T23:18:53.714Z,99442.34
2022-09-20T23:21:21.362Z,99445.03
2022-09-20T23:23:52.785Z,99452.00
2022-09-20T23:26:20.974Z,99452.00
2022-09-20T23:28:52.772Z,99453.75
2022-09-20T23:31:20.330Z,99451.13
2022-09-20T23:33:48.561Z,99446.75
2022-09-20T23:36:16.438Z,99451.16
2022-09-20T23:38:43.776Z,99450.34
2022-09-20T23:41:12.422Z,99459.31
2022-09-20T23:43:40.265Z,99460.28
2022-09-20T23:46:08.262Z,99460.41
2022-09-20T23:48:39.326Z,99466.59
2022-09-20T23:51:07.643Z,99469.22
2022-09-20T23:53:35.197Z,99469.19
2022-09-20T23:56:02.542Z,99467.47
2022-09-20T23:58:29.957Z,99474.59
